sensor_id;sensor_type;location;lat;lon;timestamp;P1;durP1;ratioP1;P2;durP2;ratioP2
5845;SDS011;2949;50.778;7.094;2023-06-22T00:01:48;8.30;;;6.80;;
5845;SDS011;2949;50.778;7.094;2023-06-22T00:04:13;10.23;;;7.10;;
5845;SDS011;2949;50.778;7.094;2023-06-22T00:06:39;7.33;;;6.30;;
5845;SDS011;2949;50.778;7.094;2023-06-22T00:09:04;14.80;;;7.07;;
5845;SDS011;2949;50.778;7.094;2023-06-22T00:11:31;7.10;;;6.40;;
5845;SDS011;2949;50.778;7.094;2023-06-22T00:13:58;7.57;;;6.77;;
5845;SDS011;2949;50.778;7.094;2023-06-22T00:16:24;9.33;;;6.50;;
5845;SDS011;2949;50.778;7.094;2023-06-22T00:18:50;11.20;;;6.70;;
5845;SDS011;2949;50.778;7.094;2023-06-22T00:21:15;14.47;;;6.20;;
5845;SDS011;2949;50.778;7.094;2023-06-22T00:23:41;8.93;;;6.70;;
5845;SDS011;2949;50.778;7.094;2023-06-22T00:26:07;9.90;;;6.67;;
5845;SDS011;2949;50.778;7.094;2023-06-22T00:28:33;10.40;;;6.00;;
5845;SDS011;2949;50.778;7.094;2023-06-22T00:30:59;9.60;;;7.53;;
5845;SDS011;2949;50.778;7.094;2023-06-22T00:33:25;6.97;;;6.27;;
5845;SDS011;2949;50.778;7.094;2023-06-22T00:35:51;6.80;;;6.20;;
5845;SDS011;2949;50.778;7.094;2023-06-22T00:38:18;7.97;;;6.40;;
5845;SDS011;2949;50.778;7.094;2023-06-22T00:40:44;9.23;;;6.90;;
5845;SDS011;2949;50.778;7.094;2023-06-22T00:43:10;10.30;;;7.23;;
5845;SDS011;2949;50.778;7.094;2023-06-22T00:45:35;9.20;;;6.77;;
5845;SDS011;2949;50.778;7.094;2023-06-22T00:48:01;11.20;;;7.40;;
5845;SDS011;2949;50.778;7.094;2023-06-22T00:50:29;10.10;;;6.73;;
5845;SDS011;2949;50.778;7.094;2023-06-22T00:52:58;7.50;;;6.80;;
5845;SDS011;2949;50.778;7.094;2023-06-22T00:55:26;14.37;;;7.17;;
5845;SDS011;2949;50.778;7.094;2023-06-22T00:57:52;7.50;;;6.67;;
5845;SDS011;2949;50.778;7.094;2023-06-22T01:00:20;10.33;;;6.80;;
5845;SDS011;2949;50.778;7.094;2023-06-22T01:02:49;11.33;;;6.70;;
5845;SDS011;2949;50.778;7.094;2023-06-22T01:05:19;13.13;;;6.87;;
5845;SDS011;2949;50.778;7.094;2023-06-22T01:10:39;7.47;;;6.33;;
5845;SDS011;2949;50.778;7.094;2023-06-22T01:18:42;11.70;;;8.00;;
5845;SDS011;2949;50.778;7.094;2023-06-22T01:21:09;13.33;;;7.70;;
5845;SDS011;2949;50.778;7.094;2023-06-22T01:23:42;8.87;;;7.13;;
5845;SDS011;2949;50.778;7.094;2023-06-22T01:26:17;12.30;;;8.60;;
5845;SDS011;2949;50.778;7.094;2023-06-22T01:28:50;11.90;;;7.87;;
5845;SDS011;2949;50.778;7.094;2023-06-22T01:31:20;9.70;;;7.40;;
5845;SDS011;2949;50.778;7.094;2023-06-22T01:33:50;8.50;;;7.70;;
5845;SDS011;2949;50.778;7.094;2023-06-22T01:36:19;8.57;;;7.43;;
5845;SDS011;2949;50.778;7.094;2023-06-22T01:38:46;8.63;;;7.73;;
5845;SDS011;2949;50.778;7.094;2023-06-22T01:41:12;8.50;;;7.40;;
5845;SDS011;2949;50.778;7.094;2023-06-22T01:43:38;8.70;;;7.00;;
5845;SDS011;2949;50.778;7.094;2023-06-22T01:46:04;10.60;;;7.70;;
5845;SDS011;2949;50.778;7.094;2023-06-22T01:48:30;11.57;;;7.47;;
5845;SDS011;2949;50.778;7.094;2023-06-22T01:50:56;10.37;;;7.97;;
5845;SDS011;2949;50.778;7.094;2023-06-22T01:53:23;10.10;;;8.43;;
5845;SDS011;2949;50.778;7.094;2023-06-22T01:55:49;7.87;;;7.10;;
5845;SDS011;2949;50.778;7.094;2023-06-22T01:58:15;11.40;;;7.80;;
5845;SDS011;2949;50.778;7.094;2023-06-22T02:00:43;8.90;;;7.33;;
5845;SDS011;2949;50.778;7.094;2023-06-22T02:03:14;8.70;;;7.80;;
5845;SDS011;2949;50.778;7.094;2023-06-22T02:05:48;9.33;;;7.27;;
5845;SDS011;2949;50.778;7.094;2023-06-22T02:08:17;11.30;;;7.43;;
5845;SDS011;2949;50.778;7.094;2023-06-22T02:10:46;16.13;;;7.60;;
5845;SDS011;2949;50.778;7.094;2023-06-22T02:13:13;7.73;;;6.60;;
5845;SDS011;2949;50.778;7.094;2023-06-22T02:15:39;9.40;;;7.57;;
5845;SDS011;2949;50.778;7.094;2023-06-22T02:18:05;7.87;;;6.90;;
5845;SDS011;2949;50.778;7.094;2023-06-22T02:20:31;8.53;;;7.00;;
5845;SDS011;2949;50.778;7.094;2023-06-22T02:22:56;7.30;;;6.70;;
5845;SDS011;2949;50.778;7.094;2023-06-22T02:25:22;12.07;;;7.47;;
5845;SDS011;2949;50.778;7.094;2023-06-22T02:27:47;11.40;;;7.23;;
5845;SDS011;2949;50.778;7.094;2023-06-22T02:30:13;13.93;;;7.27;;
5845;SDS011;2949;50.778;7.094;2023-06-22T02:32:40;8.13;;;7.00;;
5845;SDS011;2949;50.778;7.094;2023-06-22T02:35:08;7.17;;;6.47;;
5845;SDS011;2949;50.778;7.094;2023-06-22T02:37:35;10.50;;;7.50;;
5845;SDS011;2949;50.778;7.094;2023-06-22T02:40:06;13.20;;;7.67;;
5845;SDS011;2949;50.778;7.094;2023-06-22T02:42:36;7.97;;;7.17;;
5845;SDS011;2949;50.778;7.094;2023-06-22T02:45:03;8.67;;;7.77;;
5845;SDS011;2949;50.778;7.094;2023-06-22T02:47:29;8.03;;;7.23;;
5845;SDS011;2949;50.778;7.094;2023-06-22T02:49:54;14.33;;;7.53;;
5845;SDS011;2949;50.778;7.094;2023-06-22T02:52:20;11.10;;;8.07;;
5845;SDS011;2949;50.778;7.094;2023-06-22T02:54:45;9.50;;;7.30;;
5845;SDS011;2949;50.778;7.094;2023-06-22T02:57:11;9.67;;;7.80;;
5845;SDS011;2949;50.778;7.094;2023-06-22T02:59:38;7.80;;;6.80;;
5845;SDS011;2949;50.778;7.094;2023-06-22T03:02:05;10.00;;;7.73;;
5845;SDS011;2949;50.778;7.094;2023-06-22T03:04:31;8.83;;;7.70;;
5845;SDS011;2949;50.778;7.094;2023-06-22T03:06:57;7.90;;;7.10;;
5845;SDS011;2949;50.778;7.094;2023-06-22T03:09:26;10.27;;;8.20;;
5845;SDS011;2949;50.778;7.094;2023-06-22T03:11:52;8.50;;;7.50;;
5845;SDS011;2949;50.778;7.094;2023-06-22T03:14:18;10.20;;;7.67;;
5845;SDS011;2949;50.778;7.094;2023-06-22T03:16:44;13.40;;;7.87;;
5845;SDS011;2949;50.778;7.094;2023-06-22T03:19:09;8.33;;;6.90;;
5845;SDS011;2949;50.778;7.094;2023-06-22T03:21:36;9.60;;;7.10;;
5845;SDS011;2949;50.778;7.094;2023-06-22T03:24:03;7.53;;;6.83;;
5845;SDS011;2949;50.778;7.094;2023-06-22T03:26:30;10.13;;;8.33;;
5845;SDS011;2949;50.778;7.094;2023-06-22T03:28:55;10.90;;;8.77;;
5845;SDS011;2949;50.778;7.094;2023-06-22T03:31:21;13.97;;;8.03;;
5845;SDS011;2949;50.778;7.094;2023-06-22T03:33:50;13.93;;;7.97;;
5845;SDS011;2949;50.778;7.094;2023-06-22T03:36:16;8.83;;;7.90;;
5845;SDS011;2949;50.778;7.094;2023-06-22T03:38:47;10.70;;;8.43;;
5845;SDS011;2949;50.778;7.094;2023-06-22T03:41:14;13.73;;;8.70;;
5845;SDS011;2949;50.778;7.094;2023-06-22T03:43:40;13.43;;;8.10;;
5845;SDS011;2949;50.778;7.094;2023-06-22T03:46:06;12.97;;;8.10;;
5845;SDS011;2949;50.778;7.094;2023-06-22T03:48:32;12.77;;;8.87;;
5845;SDS011;2949;50.778;7.094;2023-06-22T03:50:59;13.17;;;9.40;;
5845;SDS011;2949;50.778;7.094;2023-06-22T03:53:25;11.33;;;9.17;;
5845;SDS011;2949;50.778;7.094;2023-06-22T03:55:51;8.40;;;7.63;;
5845;SDS011;2949;50.778;7.094;2023-06-22T03:58:17;13.40;;;8.50;;
5845;SDS011;2949;50.778;7.094;2023-06-22T04:00:44;13.83;;;8.70;;
5845;SDS011;2949;50.778;7.094;2023-06-22T04:03:11;9.40;;;8.50;;
5845;SDS011;2949;50.778;7.094;2023-06-22T04:05:37;9.87;;;8.70;;
5845;SDS011;2949;50.778;7.094;2023-06-22T04:08:03;17.23;;;8.63;;
5845;SDS011;2949;50.778;7.094;2023-06-22T04:10:29;13.73;;;8.30;;
5845;SDS011;2949;50.778;7.094;2023-06-22T04:12:55;14.00;;;9.07;;
5845;SDS011;2949;50.778;7.094;2023-06-22T04:15:21;10.00;;;8.73;;
5845;SDS011;2949;50.778;7.094;2023-06-22T04:17:46;11.23;;;9.00;;
5845;SDS011;2949;50.778;7.094;2023-06-22T04:20:12;11.27;;;8.40;;
5845;SDS011;2949;50.778;7.094;2023-06-22T04:22:37;9.57;;;8.40;;
5845;SDS011;2949;50.778;7.094;2023-06-22T04:25:03;16.47;;;8.67;;
5845;SDS011;2949;50.778;7.094;2023-06-22T04:27:30;15.80;;;9.10;;
5845;SDS011;2949;50.778;7.094;2023-06-22T04:29:56;11.57;;;8.00;;
5845;SDS011;2949;50.778;7.094;2023-06-22T04:32:25;14.83;;;8.40;;
5845;SDS011;2949;50.778;7.094;2023-06-22T04:34:50;14.93;;;8.30;;
5845;SDS011;2949;50.778;7.094;2023-06-22T04:37:17;13.03;;;7.33;;
5845;SDS011;2949;50.778;7.094;2023-06-22T04:39:42;12.93;;;8.63;;
5845;SDS011;2949;50.778;7.094;2023-06-22T04:42:08;10.03;;;8.43;;
5845;SDS011;2949;50.778;7.094;2023-06-22T04:44:34;14.43;;;8.23;;
5845;SDS011;2949;50.778;7.094;2023-06-22T04:47:00;24.27;;;8.70;;
5845;SDS011;2949;50.778;7.094;2023-06-22T04:49:28;9.20;;;8.27;;
5845;SDS011;2949;50.778;7.094;2023-06-22T04:51:58;12.93;;;8.10;;
5845;SDS011;2949;50.778;7.094;2023-06-22T04:54:24;11.50;;;8.30;;
5845;SDS011;2949;50.778;7.094;2023-06-22T04:56:58;10.83;;;8.73;;
5845;SDS011;2949;50.778;7.094;2023-06-22T04:59:28;16.50;;;8.90;;
5845;SDS011;2949;50.778;7.094;2023-06-22T05:01:55;11.50;;;9.37;;
5845;SDS011;2949;50.778;7.094;2023-06-22T05:04:25;14.63;;;9.10;;
5845;SDS011;2949;50.778;7.094;2023-06-22T05:06:53;10.13;;;8.53;;
5845;SDS011;2949;50.778;7.094;2023-06-22T05:09:19;12.90;;;8.70;;
5845;SDS011;2949;50.778;7.094;2023-06-22T05:11:45;11.50;;;8.70;;
5845;SDS011;2949;50.778;7.094;2023-06-22T05:14:11;13.03;;;8.40;;
5845;SDS011;2949;50.778;7.094;2023-06-22T05:16:37;10.97;;;9.40;;
5845;SDS011;2949;50.778;7.094;2023-06-22T05:19:03;10.20;;;9.00;;
5845;SDS011;2949;50.778;7.094;2023-06-22T05:21:29;15.63;;;8.47;;
5845;SDS011;2949;50.778;7.094;2023-06-22T05:23:56;10.97;;;8.13;;
5845;SDS011;2949;50.778;7.094;2023-06-22T05:26:27;12.83;;;9.10;;
5845;SDS011;2949;50.778;7.094;2023-06-22T05:28:58;13.93;;;8.53;;
5845;SDS011;2949;50.778;7.094;2023-06-22T05:31:25;10.73;;;8.00;;
5845;SDS011;2949;50.778;7.094;2023-06-22T05:33:51;10.67;;;7.67;;
5845;SDS011;2949;50.778;7.094;2023-06-22T05:36:18;13.30;;;8.73;;
5845;SDS011;2949;50.778;7.094;2023-06-22T05:38:50;8.33;;;7.30;;
5845;SDS011;2949;50.778;7.094;2023-06-22T05:41:21;9.00;;;7.23;;
5845;SDS011;2949;50.778;7.094;2023-06-22T05:43:47;10.93;;;7.93;;
5845;SDS011;2949;50.778;7.094;2023-06-22T05:46:12;12.00;;;7.83;;
5845;SDS011;2949;50.778;7.094;2023-06-22T05:48:38;8.10;;;7.30;;
5845;SDS011;2949;50.778;7.094;2023-06-22T05:51:03;11.20;;;8.00;;
5845;SDS011;2949;50.778;7.094;2023-06-22T05:53:29;8.70;;;6.87;;
5845;SDS011;2949;50.778;7.094;2023-06-22T05:55:54;8.70;;;7.37;;
5845;SDS011;2949;50.778;7.094;2023-06-22T05:58:20;19.30;;;8.20;;
5845;SDS011;2949;50.778;7.094;2023-06-22T06:00:45;12.63;;;9.20;;
5845;SDS011;2949;50.778;7.094;2023-06-22T06:03:11;12.10;;;8.10;;
5845;SDS011;2949;50.778;7.094;2023-06-22T06:05:37;13.30;;;7.63;;
5845;SDS011;2949;50.778;7.094;2023-06-22T06:08:03;15.23;;;7.20;;
5845;SDS011;2949;50.778;7.094;2023-06-22T06:10:30;20.33;;;8.47;;
5845;SDS011;2949;50.778;7.094;2023-06-22T06:12:57;10.60;;;6.77;;
5845;SDS011;2949;50.778;7.094;2023-06-22T06:15:23;8.60;;;6.83;;
5845;SDS011;2949;50.778;7.094;2023-06-22T06:17:49;9.73;;;7.70;;
5845;SDS011;2949;50.778;7.094;2023-06-22T06:20:18;10.60;;;7.37;;
5845;SDS011;2949;50.778;7.094;2023-06-22T06:22:44;12.10;;;7.20;;
5845;SDS011;2949;50.778;7.094;2023-06-22T06:25:10;9.60;;;7.80;;
5845;SDS011;2949;50.778;7.094;2023-06-22T06:27:40;12.53;;;7.20;;
5845;SDS011;2949;50.778;7.094;2023-06-22T06:30:12;9.00;;;7.97;;
5845;SDS011;2949;50.778;7.094;2023-06-22T06:32:39;8.87;;;7.87;;
5845;SDS011;2949;50.778;7.094;2023-06-22T06:35:06;8.13;;;7.30;;
5845;SDS011;2949;50.778;7.094;2023-06-22T06:37:35;9.13;;;7.47;;
5845;SDS011;2949;50.778;7.094;2023-06-22T06:40:02;8.63;;;7.73;;
5845;SDS011;2949;50.778;7.094;2023-06-22T06:42:30;13.27;;;7.90;;
5845;SDS011;2949;50.778;7.094;2023-06-22T06:44:56;12.33;;;7.50;;
5845;SDS011;2949;50.778;7.094;2023-06-22T06:47:21;8.43;;;6.63;;
5845;SDS011;2949;50.778;7.094;2023-06-22T06:49:47;11.13;;;7.30;;
5845;SDS011;2949;50.778;7.094;2023-06-22T06:52:12;7.60;;;6.63;;
5845;SDS011;2949;50.778;7.094;2023-06-22T06:54:38;9.37;;;7.00;;
5845;SDS011;2949;50.778;7.094;2023-06-22T06:57:03;7.40;;;6.70;;
5845;SDS011;2949;50.778;7.094;2023-06-22T06:59:29;10.87;;;6.53;;
5845;SDS011;2949;50.778;7.094;2023-06-22T07:01:55;13.07;;;8.90;;
5845;SDS011;2949;50.778;7.094;2023-06-22T07:04:21;10.03;;;7.60;;
5845;SDS011;2949;50.778;7.094;2023-06-22T07:06:46;12.37;;;6.90;;
5845;SDS011;2949;50.778;7.094;2023-06-22T07:09:12;9.90;;;7.03;;
5845;SDS011;2949;50.778;7.094;2023-06-22T07:11:37;12.13;;;7.13;;
5845;SDS011;2949;50.778;7.094;2023-06-22T07:14:03;9.97;;;7.60;;
5845;SDS011;2949;50.778;7.094;2023-06-22T07:16:28;8.10;;;7.40;;
5845;SDS011;2949;50.778;7.094;2023-06-22T07:18:55;9.87;;;6.80;;
5845;SDS011;2949;50.778;7.094;2023-06-22T07:21:20;9.77;;;6.67;;
5845;SDS011;2949;50.778;7.094;2023-06-22T07:23:46;10.97;;;6.50;;
5845;SDS011;2949;50.778;7.094;2023-06-22T07:26:11;6.63;;;6.03;;
5845;SDS011;2949;50.778;7.094;2023-06-22T07:28:37;11.50;;;6.40;;
5845;SDS011;2949;50.778;7.094;2023-06-22T07:31:05;8.37;;;7.30;;
5845;SDS011;2949;50.778;7.094;2023-06-22T07:33:31;11.83;;;6.57;;
5845;SDS011;2949;50.778;7.094;2023-06-22T07:35:56;6.90;;;6.03;;
5845;SDS011;2949;50.778;7.094;2023-06-22T07:38:22;11.70;;;6.33;;
5845;SDS011;2949;50.778;7.094;2023-06-22T07:40:47;12.33;;;5.73;;
5845;SDS011;2949;50.778;7.094;2023-06-22T07:43:13;6.80;;;6.20;;
5845;SDS011;2949;50.778;7.094;2023-06-22T07:45:38;11.30;;;6.60;;
5845;SDS011;2949;50.778;7.094;2023-06-22T07:48:05;7.27;;;6.50;;
5845;SDS011;2949;50.778;7.094;2023-06-22T07:50:31;8.30;;;6.13;;
5845;SDS011;2949;50.778;7.094;2023-06-22T07:52:57;7.33;;;6.10;;
5845;SDS011;2949;50.778;7.094;2023-06-22T07:55:22;6.83;;;5.80;;
5845;SDS011;2949;50.778;7.094;2023-06-22T07:57:48;9.50;;;6.00;;
5845;SDS011;2949;50.778;7.094;2023-06-22T08:00:16;9.90;;;6.13;;
5845;SDS011;2949;50.778;7.094;2023-06-22T08:02:43;7.93;;;5.87;;
5845;SDS011;2949;50.778;7.094;2023-06-22T08:05:10;8.60;;;6.97;;
5845;SDS011;2949;50.778;7.094;2023-06-22T08:07:37;7.93;;;6.40;;
5845;SDS011;2949;50.778;7.094;2023-06-22T08:10:04;6.50;;;5.90;;
5845;SDS011;2949;50.778;7.094;2023-06-22T08:12:30;6.30;;;5.70;;
5845;SDS011;2949;50.778;7.094;2023-06-22T08:14:56;9.18;;;6.18;;
5845;SDS011;2949;50.778;7.094;2023-06-22T08:17:23;9.40;;;5.70;;
5845;SDS011;2949;50.778;7.094;2023-06-22T08:19:49;7.45;;;6.75;;
5845;SDS011;2949;50.778;7.094;2023-06-22T08:22:15;6.22;;;5.57;;
5845;SDS011;2949;50.778;7.094;2023-06-22T08:24:41;6.63;;;6.00;;
5845;SDS011;2949;50.778;7.094;2023-06-22T08:27:07;6.72;;;6.05;;
5845;SDS011;2949;50.778;7.094;2023-06-22T08:29:35;10.05;;;7.30;;
5845;SDS011;2949;50.778;7.094;2023-06-22T08:32:02;8.52;;;7.20;;
5845;SDS011;2949;50.778;7.094;2023-06-22T08:34:28;8.65;;;7.15;;
5845;SDS011;2949;50.778;7.094;2023-06-22T08:36:53;8.75;;;6.10;;
5845;SDS011;2949;50.778;7.094;2023-06-22T08:39:19;6.67;;;6.07;;
5845;SDS011;2949;50.778;7.094;2023-06-22T08:41:46;8.67;;;6.40;;
5845;SDS011;2949;50.778;7.094;2023-06-22T08:44:16;8.50;;;5.87;;
5845;SDS011;2949;50.778;7.094;2023-06-22T08:46:43;6.57;;;5.97;;
5845;SDS011;2949;50.778;7.094;2023-06-22T08:49:08;7.23;;;6.60;;
5845;SDS011;2949;50.778;7.094;2023-06-22T08:51:34;7.07;;;6.33;;
5845;SDS011;2949;50.778;7.094;2023-06-22T08:54:00;8.77;;;7.30;;
5845;SDS011;2949;50.778;7.094;2023-06-22T08:56:26;8.77;;;7.17;;
5845;SDS011;2949;50.778;7.094;2023-06-22T08:58:51;9.50;;;6.33;;
5845;SDS011;2949;50.778;7.094;2023-06-22T09:01:17;11.53;;;6.53;;
5845;SDS011;2949;50.778;7.094;2023-06-22T09:03:42;9.03;;;6.70;;
5845;SDS011;2949;50.778;7.094;2023-06-22T09:06:08;7.97;;;5.83;;
5845;SDS011;2949;50.778;7.094;2023-06-22T09:08:38;7.30;;;6.60;;
5845;SDS011;2949;50.778;7.094;2023-06-22T09:11:04;7.77;;;6.73;;
5845;SDS011;2949;50.778;7.094;2023-06-22T09:13:30;8.80;;;6.97;;
5845;SDS011;2949;50.778;7.094;2023-06-22T09:15:56;7.40;;;6.70;;
5845;SDS011;2949;50.778;7.094;2023-06-22T09:18:21;8.73;;;6.63;;
5845;SDS011;2949;50.778;7.094;2023-06-22T09:20:47;8.30;;;6.80;;
5845;SDS011;2949;50.778;7.094;2023-06-22T09:23:13;7.17;;;5.93;;
5845;SDS011;2949;50.778;7.094;2023-06-22T09:25:39;8.97;;;6.33;;
5845;SDS011;2949;50.778;7.094;2023-06-22T09:28:06;7.43;;;6.60;;
5845;SDS011;2949;50.778;7.094;2023-06-22T09:30:31;6.90;;;6.20;;
5845;SDS011;2949;50.778;7.094;2023-06-22T09:32:56;7.67;;;5.97;;
5845;SDS011;2949;50.778;7.094;2023-06-22T09:35:22;6.63;;;5.63;;
5845;SDS011;2949;50.778;7.094;2023-06-22T09:37:48;6.23;;;5.63;;
5845;SDS011;2949;50.778;7.094;2023-06-22T09:40:13;8.30;;;6.20;;
5845;SDS011;2949;50.778;7.094;2023-06-22T09:42:41;8.23;;;5.90;;
5845;SDS011;2949;50.778;7.094;2023-06-22T09:45:07;6.97;;;6.30;;
5845;SDS011;2949;50.778;7.094;2023-06-22T09:47:33;9.90;;;6.80;;
5845;SDS011;2949;50.778;7.094;2023-06-22T09:49:58;7.13;;;6.43;;
5845;SDS011;2949;50.778;7.094;2023-06-22T09:52:24;8.17;;;6.43;;
5845;SDS011;2949;50.778;7.094;2023-06-22T09:54:50;9.60;;;6.20;;
5845;SDS011;2949;50.778;7.094;2023-06-22T09:57:16;10.00;;;6.37;;
5845;SDS011;2949;50.778;7.094;2023-06-22T09:59:41;11.20;;;6.57;;
5845;SDS011;2949;50.778;7.094;2023-06-22T10:02:07;7.20;;;6.50;;
5845;SDS011;2949;50.778;7.094;2023-06-22T10:04:33;6.80;;;6.07;;
5845;SDS011;2949;50.778;7.094;2023-06-22T10:06:59;6.97;;;6.23;;
5845;SDS011;2949;50.778;7.094;2023-06-22T10:09:25;8.20;;;6.90;;
5845;SDS011;2949;50.778;7.094;2023-06-22T10:11:50;10.00;;;7.57;;
5845;SDS011;2949;50.778;7.094;2023-06-22T10:14:16;8.37;;;7.00;;
5845;SDS011;2949;50.778;7.094;2023-06-22T10:16:41;8.00;;;7.20;;
5845;SDS011;2949;50.778;7.094;2023-06-22T10:19:07;9.53;;;7.50;;
5845;SDS011;2949;50.778;7.094;2023-06-22T10:21:33;8.30;;;6.93;;
5845;SDS011;2949;50.778;7.094;2023-06-22T10:23:59;10.20;;;7.30;;
5845;SDS011;2949;50.778;7.094;2023-06-22T10:26:30;11.07;;;7.13;;
5845;SDS011;2949;50.778;7.094;2023-06-22T10:28:57;8.00;;;7.13;;
5845;SDS011;2949;50.778;7.094;2023-06-22T10:31:22;9.60;;;7.70;;
5845;SDS011;2949;50.778;7.094;2023-06-22T10:33:48;8.63;;;7.67;;
5845;SDS011;2949;50.778;7.094;2023-06-22T10:36:14;9.80;;;7.73;;
5845;SDS011;2949;50.778;7.094;2023-06-22T10:38:40;9.43;;;8.30;;
5845;SDS011;2949;50.778;7.094;2023-06-22T10:41:05;11.50;;;8.80;;
5845;SDS011;2949;50.778;7.094;2023-06-22T10:43:31;8.57;;;7.67;;
5845;SDS011;2949;50.778;7.094;2023-06-22T10:45:57;11.23;;;8.70;;
5845;SDS011;2949;50.778;7.094;2023-06-22T10:48:23;12.80;;;8.90;;
5845;SDS011;2949;50.778;7.094;2023-06-22T10:50:48;14.27;;;9.50;;
5845;SDS011;2949;50.778;7.094;2023-06-22T10:53:13;12.17;;;9.90;;
5845;SDS011;2949;50.778;7.094;2023-06-22T10:55:39;17.73;;;11.07;;
5845;SDS011;2949;50.778;7.094;2023-06-22T10:58:04;16.67;;;11.70;;
5845;SDS011;2949;50.778;7.094;2023-06-22T11:00:30;29.77;;;12.60;;
5845;SDS011;2949;50.778;7.094;2023-06-22T11:02:55;19.43;;;11.70;;
5845;SDS011;2949;50.778;7.094;2023-06-22T11:05:21;17.60;;;13.57;;
5845;SDS011;2949;50.778;7.094;2023-06-22T11:07:47;20.13;;;14.53;;
5845;SDS011;2949;50.778;7.094;2023-06-22T11:10:14;24.77;;;15.30;;
5845;SDS011;2949;50.778;7.094;2023-06-22T11:12:40;20.13;;;14.00;;
5845;SDS011;2949;50.778;7.094;2023-06-22T11:15:07;22.30;;;14.43;;
5845;SDS011;2949;50.778;7.094;2023-06-22T11:17:33;18.17;;;15.00;;
5845;SDS011;2949;50.778;7.094;2023-06-22T11:19:59;19.70;;;13.00;;
5845;SDS011;2949;50.778;7.094;2023-06-22T11:22:25;18.47;;;13.80;;
5845;SDS011;2949;50.778;7.094;2023-06-22T11:24:51;17.70;;;13.57;;
5845;SDS011;2949;50.778;7.094;2023-06-22T11:27:16;18.53;;;13.87;;
5845;SDS011;2949;50.778;7.094;2023-06-22T11:29:42;17.53;;;12.93;;
5845;SDS011;2949;50.778;7.094;2023-06-22T11:32:07;13.30;;;11.47;;
5845;SDS011;2949;50.778;7.094;2023-06-22T11:34:33;18.30;;;12.87;;
5845;SDS011;2949;50.778;7.094;2023-06-22T11:36:59;16.67;;;13.20;;
5845;SDS011;2949;50.778;7.094;2023-06-22T11:39:24;14.23;;;12.67;;
5845;SDS011;2949;50.778;7.094;2023-06-22T11:41:50;16.80;;;12.87;;
5845;SDS011;2949;50.778;7.094;2023-06-22T11:44:15;14.73;;;11.93;;
5845;SDS011;2949;50.778;7.094;2023-06-22T11:46:41;13.37;;;11.10;;
5845;SDS011;2949;50.778;7.094;2023-06-22T11:49:06;15.00;;;11.27;;
5845;SDS011;2949;50.778;7.094;2023-06-22T11:51:32;16.33;;;11.67;;
5845;SDS011;2949;50.778;7.094;2023-06-22T11:53:58;15.13;;;11.97;;
5845;SDS011;2949;50.778;7.094;2023-06-22T11:56:24;15.37;;;10.60;;
5845;SDS011;2949;50.778;7.094;2023-06-22T11:58:49;12.97;;;9.77;;
5845;SDS011;2949;50.778;7.094;2023-06-22T12:01:15;14.20;;;11.00;;
5845;SDS011;2949;50.778;7.094;2023-06-22T12:03:40;12.33;;;9.80;;
5845;SDS011;2949;50.778;7.094;2023-06-22T12:06:08;11.47;;;9.50;;
5845;SDS011;2949;50.778;7.094;2023-06-22T12:08:34;13.33;;;9.13;;
5845;SDS011;2949;50.778;7.094;2023-06-22T12:11:00;13.70;;;10.03;;
5845;SDS011;2949;50.778;7.094;2023-06-22T12:13:25;12.43;;;10.03;;
5845;SDS011;2949;50.778;7.094;2023-06-22T12:15:51;13.97;;;10.03;;
5845;SDS011;2949;50.778;7.094;2023-06-22T12:18:17;12.50;;;10.17;;
5845;SDS011;2949;50.778;7.094;2023-06-22T12:20:45;13.07;;;9.93;;
5845;SDS011;2949;50.778;7.094;2023-06-22T12:23:11;10.87;;;9.70;;
5845;SDS011;2949;50.778;7.094;2023-06-22T12:25:36;12.13;;;9.90;;
5845;SDS011;2949;50.778;7.094;2023-06-22T12:28:02;10.47;;;8.77;;
5845;SDS011;2949;50.778;7.094;2023-06-22T12:30:29;10.97;;;8.30;;
5845;SDS011;2949;50.778;7.094;2023-06-22T12:32:55;11.03;;;7.87;;
5845;SDS011;2949;50.778;7.094;2023-06-22T12:35:21;7.47;;;6.67;;
5845;SDS011;2949;50.778;7.094;2023-06-22T12:37:46;7.80;;;5.97;;
5845;SDS011;2949;50.778;7.094;2023-06-22T12:40:12;7.20;;;5.67;;
5845;SDS011;2949;50.778;7.094;2023-06-22T12:42:37;7.13;;;5.53;;
5845;SDS011;2949;50.778;7.094;2023-06-22T12:45:03;6.53;;;5.73;;
5845;SDS011;2949;50.778;7.094;2023-06-22T12:47:29;6.50;;;4.53;;
5845;SDS011;2949;50.778;7.094;2023-06-22T12:49:55;6.80;;;5.03;;
5845;SDS011;2949;50.778;7.094;2023-06-22T12:52:21;6.20;;;4.73;;
5845;SDS011;2949;50.778;7.094;2023-06-22T12:54:46;5.20;;;4.70;;
5845;SDS011;2949;50.778;7.094;2023-06-22T12:57:12;4.50;;;4.10;;
5845;SDS011;2949;50.778;7.094;2023-06-22T12:59:37;4.60;;;4.20;;
5845;SDS011;2949;50.778;7.094;2023-06-22T13:02:03;3.67;;;3.37;;
5845;SDS011;2949;50.778;7.094;2023-06-22T13:04:28;3.73;;;3.40;;
5845;SDS011;2949;50.778;7.094;2023-06-22T13:06:54;3.77;;;3.47;;
5845;SDS011;2949;50.778;7.094;2023-06-22T13:09:19;3.40;;;3.10;;
5845;SDS011;2949;50.778;7.094;2023-06-22T13:11:45;4.23;;;3.27;;
5845;SDS011;2949;50.778;7.094;2023-06-22T13:14:10;3.40;;;3.10;;
5845;SDS011;2949;50.778;7.094;2023-06-22T13:16:36;2.53;;;2.20;;
5845;SDS011;2949;50.778;7.094;2023-06-22T13:19:02;4.70;;;2.90;;
5845;SDS011;2949;50.778;7.094;2023-06-22T13:21:28;2.90;;;2.70;;
5845;SDS011;2949;50.778;7.094;2023-06-22T13:23:53;2.60;;;2.50;;
5845;SDS011;2949;50.778;7.094;2023-06-22T13:26:19;5.07;;;2.93;;
5845;SDS011;2949;50.778;7.094;2023-06-22T13:28:45;3.67;;;3.20;;
5845;SDS011;2949;50.778;7.094;2023-06-22T13:31:12;3.80;;;3.50;;
5845;SDS011;2949;50.778;7.094;2023-06-22T13:33:37;5.07;;;4.30;;
5845;SDS011;2949;50.778;7.094;2023-06-22T13:36:03;6.73;;;4.80;;
5845;SDS011;2949;50.778;7.094;2023-06-22T13:38:31;5.40;;;4.80;;
5845;SDS011;2949;50.778;7.094;2023-06-22T13:40:57;4.90;;;4.20;;
5845;SDS011;2949;50.778;7.094;2023-06-22T13:43:24;6.30;;;4.50;;
5845;SDS011;2949;50.778;7.094;2023-06-22T13:45:51;4.97;;;4.50;;
5845;SDS011;2949;50.778;7.094;2023-06-22T13:48:17;20.10;;;5.27;;
5845;SDS011;2949;50.778;7.094;2023-06-22T13:50:43;6.43;;;4.97;;
5845;SDS011;2949;50.778;7.094;2023-06-22T13:53:08;6.97;;;5.73;;
5845;SDS011;2949;50.778;7.094;2023-06-22T13:55:34;6.90;;;5.00;;
5845;SDS011;2949;50.778;7.094;2023-06-22T13:58:00;5.47;;;4.83;;
5845;SDS011;2949;50.778;7.094;2023-06-22T14:00:26;6.10;;;4.80;;
5845;SDS011;2949;50.778;7.094;2023-06-22T14:02:53;5.07;;;4.57;;
5845;SDS011;2949;50.778;7.094;2023-06-22T14:05:18;5.00;;;4.50;;
5845;SDS011;2949;50.778;7.094;2023-06-22T14:07:44;4.97;;;4.47;;
5845;SDS011;2949;50.778;7.094;2023-06-22T14:10:10;5.07;;;4.53;;
5845;SDS011;2949;50.778;7.094;2023-06-22T14:12:36;5.20;;;4.70;;
5845;SDS011;2949;50.778;7.094;2023-06-22T14:15:02;6.00;;;4.90;;
5845;SDS011;2949;50.778;7.094;2023-06-22T14:17:27;5.57;;;5.03;;
5845;SDS011;2949;50.778;7.094;2023-06-22T14:19:53;7.90;;;5.97;;
5845;SDS011;2949;50.778;7.094;2023-06-22T14:22:19;6.97;;;6.27;;
5845;SDS011;2949;50.778;7.094;2023-06-22T14:24:45;6.63;;;5.93;;
5845;SDS011;2949;50.778;7.094;2023-06-22T14:27:12;11.33;;;7.13;;
5845;SDS011;2949;50.778;7.094;2023-06-22T14:29:37;7.47;;;6.23;;
5845;SDS011;2949;50.778;7.094;2023-06-22T14:32:03;9.97;;;7.80;;
5845;SDS011;2949;50.778;7.094;2023-06-22T14:34:31;9.20;;;6.93;;
5845;SDS011;2949;50.778;7.094;2023-06-22T14:36:56;8.90;;;7.33;;
5845;SDS011;2949;50.778;7.094;2023-06-22T14:39:22;8.07;;;7.13;;
5845;SDS011;2949;50.778;7.094;2023-06-22T14:41:47;14.33;;;7.93;;
5845;SDS011;2949;50.778;7.094;2023-06-22T14:44:13;11.83;;;8.43;;
5845;SDS011;2949;50.778;7.094;2023-06-22T14:46:38;20.53;;;10.27;;
5845;SDS011;2949;50.778;7.094;2023-06-22T14:49:04;18.27;;;10.33;;
5845;SDS011;2949;50.778;7.094;2023-06-22T14:51:29;16.03;;;11.70;;
5845;SDS011;2949;50.778;7.094;2023-06-22T14:53:55;19.00;;;12.90;;
5845;SDS011;2949;50.778;7.094;2023-06-22T14:56:20;21.40;;;13.70;;
5845;SDS011;2949;50.778;7.094;2023-06-22T14:58:46;16.00;;;10.80;;
5845;SDS011;2949;50.778;7.094;2023-06-22T15:01:11;14.70;;;10.60;;
5845;SDS011;2949;50.778;7.094;2023-06-22T15:03:37;20.30;;;13.60;;
5845;SDS011;2949;50.778;7.094;2023-06-22T15:06:04;17.40;;;11.63;;
5845;SDS011;2949;50.778;7.094;2023-06-22T15:08:30;2.10;;;1.63;;
5845;SDS011;2949;50.778;7.094;2023-06-22T15:10:58;1.10;;;1.10;;